Terminal Aerodrome Forecast
Issued by NWS Quad Cities IA IL

Home | Current Version | Previous Version | Text Only | Print | Product List | Glossary On
Versions: 1 2 3 4 5 6 7 8 9 10 11 12 13 14 15
000
FTUS43 KDVN 291430 AAA
TAFMLI
TAF AMD
KMLI 291430Z 2915/3012 VRB03KT P6SM OVC025
     FM291800 19005KT P6SM BKN035
     FM292100 11006KT P6SM VCSH BKN040
     FM300800 08003KT 4SM BR FEW100=

USA.gov is the U.S. government's official web portal to all federal, state and local government web resources and services.